Time;durP1;ratioP1;P1;durP2;ratioP2;P2;SDS_P1;SDS_P2;PMS_P1;PMS_P2;Temp;Humidity;BMP_temperature;BMP_pressure;BME280_temperature;BME280_humidity;BME280_pressure;Samples;Min_cycle;Max_cycle;Signal;HPM_P1;HPM_P2
2021/04/14 00:00:22;;;;;;;1.42;1.00;;;5.90;91.30;;;;;;10214370;28;20044;-77
2021/04/14 00:05:36;;;;;;;1.05;1.00;;;8.30;92.00;;;;;;10214962;28;20371;-79
2021/04/14 00:10:34;;;;;;;2.42;1.33;;;6.50;91.60;;;;;;10214194;28;20047;-78
2021/04/14 00:15:31;;;;;;;2.38;1.38;;;6.50;92.10;;;;;;10214595;28;20089;-78
2021/04/14 00:20:24;;;;;;;2.38;1.20;;;7.60;91.60;;;;;;10214871;28;20040;-79
2021/04/14 00:25:23;;;;;;;1.63;1.48;;;8.10;92.10;;;;;;10214812;28;20043;-78
2021/04/14 00:30:16;;;;;;;3.33;1.50;;;5.60;90.90;;;;;;10214033;28;20051;-78
2021/04/14 00:35:10;;;;;;;2.97;1.33;;;8.40;92.40;;;;;;10214141;28;20458;-78
2021/04/14 00:40:05;;;;;;;2.35;1.60;;;7.50;91.60;;;;;;10213319;28;20147;-77
2021/04/14 00:44:59;;;;;;;2.58;1.65;;;;;;;;;;10213710;28;20044;-78
2021/04/14 00:49:53;;;;;;;2.45;1.50;;;8.20;91.40;;;;;;10213527;28;20547;-78
2021/04/14 00:54:46;;;;;;;2.13;1.60;;;;;;;;;;10218134;28;20395;-78
2021/04/14 00:59:39;;;;;;;2.10;1.38;;;6.10;91.00;;;;;;10203895;28;20040;-79
2021/04/14 01:04:33;;;;;;;1.60;1.23;;;8.30;91.60;;;;;;10221868;28;20047;-79
2021/04/14 01:09:27;;;;;;;1.20;1.10;;;6.70;91.30;;;;;;10221433;28;20089;-78
2021/04/14 01:14:22;;;;;;;1.25;0.98;;;5.40;91.00;;;;;;10220833;28;20051;-79
2021/04/14 01:19:15;;;;;;;1.17;1.02;;;6.20;90.80;;;;;;10220708;28;20048;-80
2021/04/14 01:24:10;;;;;;;1.40;1.10;;;6.90;91.30;;;;;;10220508;28;20405;-79
2021/04/14 01:29:04;;;;;;;1.25;1.00;;;5.90;91.30;;;;;;10220588;28;20044;-77
2021/04/14 01:33:57;;;;;;;2.03;1.23;;;5.40;90.50;;;;;;10220771;28;20048;-78
2021/04/14 01:38:50;;;;;;;1.30;1.20;;;6.80;90.90;;;;;;10220037;28;20093;-78
2021/04/14 01:43:44;;;;;;;1.38;1.00;;;6.00;90.50;;;;;;10219952;28;20428;-78
2021/04/14 01:48:36;;;;;;;1.10;1.00;;;8.00;91.30;;;;;;10201181;28;20048;-78
2021/04/14 01:53:29;;;;;;;1.30;1.10;;;7.60;91.60;;;;;;10219386;28;20426;-78
2021/04/14 01:58:23;;;;;;;1.40;1.30;;;5.20;90.80;;;;;;10219395;28;20052;-78
2021/04/14 02:03:17;;;;;;;2.35;1.10;;;;;;;;;;10219048;28;20054;-77
2021/04/14 02:08:11;;;;;;;1.55;1.02;;;6.50;90.60;;;;;;10218608;28;20134;-79
2021/04/14 02:13:07;;;;;;;1.80;1.15;;;5.70;90.40;;;;;;10200813;28;20048;-79
2021/04/14 02:18:00;;;;;;;1.60;1.10;;;7.80;91.40;;;;;;10219113;28;20478;-78
2021/04/14 02:22:54;;;;;;;1.40;1.30;;;7.50;91.40;;;;;;10199910;28;20043;-78
2021/04/14 02:27:47;;;;;;;2.00;1.50;;;8.70;91.60;;;;;;10217933;28;20063;-79
2021/04/14 02:32:43;;;;;;;1.98;1.10;;;;;;;;;;10199821;28;20047;-80
2021/04/14 02:37:37;;;;;;;1.80;1.23;;;;;;;;;;10217887;28;20529;-80
2021/04/14 02:42:30;;;;;;;1.38;1.27;;;7.10;91.10;;;;;;10217637;28;20105;-77
2021/04/14 02:47:26;;;;;;;1.45;1.20;;;7.30;90.70;;;;;;10218526;28;20056;-78
2021/04/14 02:52:18;;;;;;;1.30;1.20;;;7.90;91.30;;;;;;10217798;28;20047;-79
2021/04/14 02:57:11;;;;;;;1.40;1.15;;;7.10;91.20;;;;;;10217611;28;20055;-78
2021/04/14 03:02:05;;;;;;;2.15;1.17;;;5.50;90.80;;;;;;10216788;28;20055;-77
2021/04/14 03:06:58;;;;;;;1.85;1.20;;;8.10;91.60;;;;;;10216184;28;20508;-78
2021/04/14 03:11:50;;;;;;;1.40;1.30;;;8.20;91.60;;;;;;10181997;28;20410;-77
2021/04/14 03:16:43;;;;;;;2.17;1.13;;;7.80;91.30;;;;;;10215838;28;20501;-77
2021/04/14 03:21:38;;;;;;;1.92;1.48;;;8.80;91.60;;;;;;10216657;28;20069;-78
2021/04/14 03:26:31;;;;;;;2.45;1.38;;;6.70;91.10;;;;;;10216688;28;20089;-79
2021/04/14 03:31:26;;;;;;;1.65;1.30;;;;;;;;;;10215368;28;20048;-79
2021/04/14 03:36:21;;;;;;;2.33;1.30;;;7.40;91.10;;;;;;10215510;28;20052;-80
2021/04/14 03:41:15;;;;;;;1.55;1.45;;;;;;;;;;10215119;28;20081;-79
2021/04/14 03:46:08;;;;;;;1.90;1.40;;;7.30;91.10;;;;;;10214578;28;20485;-80
2021/04/14 03:51:01;;;;;;;2.35;1.52;;;;;;;;;;10215042;28;20383;-79
2021/04/14 03:55:59;;;;;;;2.60;2.00;;;5.50;90.50;;;;;;10214819;28;20044;-79
2021/04/14 04:00:53;;;;;;;3.40;2.08;;;7.40;90.40;;;;;;10215117;28;20101;-79
2021/04/14 04:05:47;;;;;;;2.45;1.75;;;7.70;90.90;;;;;;10214971;28;20577;-79
2021/04/14 04:10:40;;;;;;;1.80;1.65;;;8.10;90.50;;;;;;10214751;28;20101;-79
2021/04/14 04:15:33;;;;;;;2.00;1.80;;;6.00;89.90;;;;;;10196091;28;20134;-79
2021/04/14 04:20:26;;;;;;;1.88;1.70;;;6.60;90.10;;;;;;10213876;28;20302;-78
2021/04/14 04:25:19;;;;;;;2.40;1.90;;;;;;;;;;10213889;28;20071;-79
2021/04/14 04:30:13;;;;;;;2.38;1.98;;;8.00;90.90;;;;;;10200603;28;20394;-79
2021/04/14 04:35:07;;;;;;;4.00;2.60;;;8.40;90.90;;;;;;10222501;28;20055;-80
2021/04/14 04:40:01;;;;;;;4.05;2.40;;;8.20;90.80;;;;;;10222268;28;20109;-79
2021/04/14 04:44:54;;;;;;;4.25;2.50;;;7.40;90.20;;;;;;10221849;28;20063;-80
2021/04/14 04:49:47;;;;;;;4.35;2.67;;;;;;;;;;10221321;28;20276;-79
2021/04/14 04:54:41;;;;;;;5.63;3.22;;;9.20;90.90;;;;;;10221328;28;20097;-78
2021/04/14 04:59:37;;;;;;;6.40;4.50;;;6.60;88.90;;;;;;10220853;28;20436;-80
2021/04/14 05:04:30;;;;;;;7.28;4.60;;;;;;;;;;10220692;28;20421;-80
2021/04/14 05:09:23;;;;;;;8.15;5.10;;;7.90;90.50;;;;;;10221067;28;20092;-80
2021/04/14 05:14:16;;;;;;;8.63;5.78;;;8.00;90.30;;;;;;10220456;28;20383;-78
2021/04/14 05:19:10;;;;;;;7.75;5.55;;;7.10;90.10;;;;;;10220539;28;20409;-79
2021/04/14 05:24:03;;;;;;;9.25;6.20;;;;;;;;;;10220424;28;20100;-78
2021/04/14 05:28:56;;;;;;;9.65;6.13;;;7.50;90.00;;;;;;10219686;28;20048;-79
2021/04/14 05:33:49;;;;;;;8.98;6.15;;;;;;;;;;10200664;28;20050;-79
2021/04/14 05:38:43;;;;;;;9.65;6.20;;;;;;;;;;10200409;28;20460;-79
2021/04/14 05:43:39;;;;;;;9.10;5.90;;;;;;;;;;10200053;28;20055;-78
2021/04/14 05:48:31;;;;;;;9.13;6.28;;;;;;;;;;10219122;28;20047;-78
2021/04/14 05:53:24;;;;;;;11.30;6.07;;;7.60;88.90;;;;;;10218663;28;20051;-78
2021/04/14 05:58:21;;;;;;;9.27;6.00;;;;;;;;;;10217609;28;20043;-79
2021/04/14 06:03:14;;;;;;;9.57;6.03;;;8.10;89.00;;;;;;10218008;28;20501;-79
2021/04/14 06:08:07;;;;;;;9.13;5.88;;;8.10;88.40;;;;;;10216979;28;20048;-77
2021/04/14 06:12:59;;;;;;;8.57;4.95;;;8.70;88.50;;;;;;10217339;28;20054;-80
2021/04/14 06:17:53;;;;;;;9.52;6.05;;;;;;;;;;10216874;28;20101;-79
2021/04/14 06:22:47;;;;;;;6.90;4.68;;;6.50;85.50;;;;;;10199226;28;20209;-80
2021/04/14 06:27:44;;;;;;;7.35;4.43;;;;;;;;;;10216614;28;20042;-81
2021/04/14 06:32:37;;;;;;;7.05;4.88;;;8.60;87.60;;;;;;10198367;28;20044;-81
2021/04/14 06:37:31;;;;;;;7.50;4.97;;;7.50;86.10;;;;;;10216175;28;20048;-78
2021/04/14 06:42:37;;;;;;;6.30;3.92;;;;;;;;;;10197331;28;20062;-79
2021/04/14 06:47:51;;;;;;;6.15;4.57;;;8.30;86.00;;;;;;10215588;28;20411;-80
2021/04/14 06:52:57;;;;;;;7.25;4.68;;;7.80;85.50;;;;;;10196301;28;20504;-79
2021/04/14 06:57:54;;;;;;;7.95;5.10;;;7.40;84.80;;;;;;10216046;28;20103;-79
2021/04/14 07:02:52;;;;;;;6.20;4.30;;;8.40;85.70;;;;;;10216107;28;20051;-80
2021/04/14 07:07:51;;;;;;;5.07;4.00;;;8.00;85.00;;;;;;10215637;28;20044;-80
2021/04/14 07:12:44;;;;;;;6.40;4.40;;;7.70;84.20;;;;;;10215857;28;20398;-80
2021/04/14 07:17:49;;;;;;;7.97;3.88;;;7.50;83.80;;;;;;10214424;28;20040;-79
2021/04/14 07:23:05;;;;;;;5.07;3.90;;;7.20;83.30;;;;;;10214221;28;20409;-79
2021/04/14 07:28:09;;;;;;;5.55;3.60;;;6.70;83.60;;;;;;10214843;28;20052;-79
2021/04/14 07:33:13;;;;;;;5.30;3.53;;;7.20;82.80;;;;;;10214380;28;20373;-80
2021/04/14 07:38:15;;;;;;;6.60;4.25;;;7.30;82.80;;;;;;10195352;28;20091;-80
2021/04/14 07:43:17;;;;;;;5.85;3.90;;;10.20;84.70;;;;;;10213794;28;20051;-79
2021/04/14 07:48:15;;;;;;;5.68;3.92;;;9.80;84.10;;;;;;10194803;28;20448;-79
2021/04/14 07:53:20;;;;;;;10.18;4.30;;;9.20;82.10;;;;;;10194230;28;20527;-79
2021/04/14 07:58:17;;;;;;;6.47;3.72;;;7.60;81.80;;;;;;10213681;28;20405;-81
2021/04/14 08:03:17;;;;;;;4.55;3.33;;;8.80;82.30;;;;;;10213597;28;20051;-79
2021/04/14 08:08:15;;;;;;;8.57;5.13;;;9.00;82.20;;;;;;10212781;28;20055;-79
2021/04/14 08:13:13;;;;;;;6.07;3.60;;;8.80;81.80;;;;;;10213544;28;20047;-79
2021/04/14 08:18:11;;;;;;;5.72;3.90;;;;;;;;;;10212826;28;20055;-81
2021/04/14 08:23:09;;;;;;;6.28;3.90;;;8.00;80.80;;;;;;10212614;28;20048;-80
2021/04/14 08:28:04;;;;;;;7.28;3.97;;;;;;;;;;10212062;28;20048;-79
2021/04/14 08:33:00;;;;;;;4.97;3.42;;;;;;;;;;10212928;28;20129;-80
2021/04/14 08:38:14;;;;;;;10.93;3.97;;;9.70;81.30;;;;;;10212485;28;20043;-78
2021/04/14 08:43:10;;;;;;;5.68;3.67;;;7.30;79.20;;;;;;10212356;28;20093;-80
2021/04/14 08:48:10;;;;;;;7.25;3.65;;;7.80;79.20;;;;;;10194089;28;20044;-78
2021/04/14 08:53:09;;;;;;;8.52;3.25;;;7.70;78.20;;;;;;10212039;28;20448;-80
2021/04/14 08:58:03;;;;;;;8.32;3.58;;;;;;;;;;10211636;28;20039;-79
2021/04/14 09:03:01;;;;;;;8.68;3.35;;;10.30;80.90;;;;;;10212068;28;20524;-79
2021/04/14 09:07:56;;;;;;;22.40;4.10;;;9.80;80.30;;;;;;10212182;28;20031;-79
2021/04/14 09:12:50;;;;;;;6.60;3.13;;;8.90;79.50;;;;;;10211783;28;20048;-80
2021/04/14 09:17:45;;;;;;;7.10;3.10;;;;;;;;;;10218140;28;20413;-80
2021/04/14 09:22:38;;;;;;;6.95;3.97;;;;;;;;;;10218468;28;20127;-79
2021/04/14 09:27:45;;;;;;;5.10;3.05;;;10.00;78.20;;;;;;10214030;28;20478;-74
2021/04/14 09:32:55;;;;;;;6.40;3.40;;;9.80;77.90;;;;;;10209162;28;20040;-74
2021/04/14 09:37:48;;;;;;;9.60;3.40;;;9.00;74.80;;;;;;10198052;28;20126;-73
2021/04/14 09:42:44;;;;;;;6.75;3.58;;;9.20;75.70;;;;;;10216465;28;20585;-73
2021/04/14 09:47:36;;;;;;;6.80;3.17;;;8.60;72.80;;;;;;10216909;28;20119;-73
2021/04/14 09:52:34;;;;;;;7.25;3.47;;;9.20;74.30;;;;;;10216767;28;20051;-74
2021/04/14 09:57:30;;;;;;;12.45;4.30;;;7.90;74.60;;;;;;10214917;28;20051;-74
2021/04/14 10:02:26;;;;;;;5.40;3.22;;;8.70;74.00;;;;;;10195956;28;20055;-73
2021/04/14 10:07:22;;;;;;;5.05;3.05;;;9.70;73.00;;;;;;10214997;28;20052;-74
2021/04/14 10:12:17;;;;;;;8.98;3.20;;;10.40;75.70;;;;;;10215100;28;20059;-74
2021/04/14 10:17:10;;;;;;;5.75;2.78;;;10.20;75.20;;;;;;10206395;28;20049;-74
2021/04/14 10:22:10;;;;;;;6.93;3.30;;;8.90;72.00;;;;;;10214493;28;20443;-75
2021/04/14 10:27:05;;;;;;;5.47;3.03;;;9.20;74.70;;;;;;10172142;28;20056;-75
2021/04/14 10:31:58;;;;;;;10.30;3.47;;;;;;;;;;10211589;28;20078;-75
2021/04/14 10:36:52;;;;;;;4.85;3.30;;;10.20;75.20;;;;;;10195610;28;20482;-76
2021/04/14 10:41:48;;;;;;;5.18;3.00;;;10.20;74.60;;;;;;10212806;28;20053;-75
2021/04/14 10:46:41;;;;;;;7.85;3.28;;;10.80;74.70;;;;;;10213873;28;20058;-74
2021/04/14 10:51:39;;;;;;;7.57;3.15;;;;;;;;;;10213967;28;20063;-75
2021/04/14 10:56:32;;;;;;;5.15;3.03;;;10.60;73.70;;;;;;10213350;28;20065;-75
2021/04/14 11:01:35;;;;;;;5.05;3.53;;;10.80;72.70;;;;;;10212242;28;20476;-74
2021/04/14 11:06:28;;;;;;;5.30;2.70;;;11.10;69.30;;;;;;10194862;28;20083;-76
2021/04/14 11:11:22;;;;;;;8.85;3.08;;;10.70;71.40;;;;;;10212113;28;20070;-75
2021/04/14 11:16:15;;;;;;;5.38;2.47;;;10.80;71.60;;;;;;10212187;28;20049;-74
2021/04/14 11:21:23;;;;;;;5.00;2.80;;;;;;;;;;10202200;28;20070;-74
2021/04/14 11:26:20;;;;;;;7.60;2.95;;;10.30;70.80;;;;;;10212751;28;20468;-74
2021/04/14 11:31:26;;;;;;;6.28;2.17;;;10.00;70.10;;;;;;10210973;28;20048;-75
2021/04/14 11:36:32;;;;;;;3.83;2.42;;;10.90;69.60;;;;;;10210366;28;20057;-76
2021/04/14 11:41:29;;;;;;;2.80;2.10;;;;;;;;;;10210664;28;20535;-74
2021/04/14 11:46:34;;;;;;;2.90;2.03;;;11.30;70.00;;;;;;10209244;28;20059;-75
2021/04/14 11:51:32;;;;;;;4.35;2.00;;;9.60;68.90;;;;;;10208836;28;20055;-75
2021/04/14 11:56:27;;;;;;;2.72;1.50;;;;;;;;;;10210406;28;20054;-75
2021/04/14 12:01:23;;;;;;;4.38;2.10;;;;;;;;;;10208648;28;20130;-76
2021/04/14 12:06:16;;;;;;;3.55;1.90;;;;;;;;;;10209911;28;20412;-75
2021/04/14 12:11:19;;;;;;;2.13;1.33;;;10.30;67.60;;;;;;10208298;28;20501;-75
2021/04/14 12:16:12;;;;;;;2.28;1.58;;;;;;;;;;10189620;28;20047;-76
2021/04/14 12:21:05;;;;;;;4.75;1.70;;;;;;;;;;10189019;28;20063;-75
2021/04/14 12:25:58;;;;;;;1.88;1.50;;;10.10;66.70;;;;;;10168101;28;20052;-74
2021/04/14 12:30:54;;;;;;;4.30;1.27;;;10.50;67.00;;;;;;10209826;28;20086;-75
2021/04/14 12:36:07;;;;;;;3.03;1.77;;;;;;;;;;10209099;28;20054;-76
2021/04/14 12:41:01;;;;;;;6.47;2.47;;;9.80;66.10;;;;;;10210737;28;20100;-77
2021/04/14 12:45:56;;;;;;;4.88;2.03;;;10.00;66.50;;;;;;10210657;28;20052;-76
2021/04/14 12:51:29;;;;;;;6.80;1.98;;;10.20;65.00;;;;;;10213977;28;20044;-76
2021/04/14 12:56:28;;;;;;;1.92;1.50;;;10.60;65.10;;;;;;10190865;28;20150;-79
2021/04/14 13:01:27;;;;;;;3.85;1.70;;;10.50;64.80;;;;;;10218443;28;20044;-78
2021/04/14 13:06:27;;;;;;;5.00;1.73;;;10.30;64.00;;;;;;10218110;28;20044;-79
2021/04/14 13:11:23;;;;;;;2.15;1.50;;;11.30;65.10;;;;;;10197386;28;20055;-77
2021/04/14 13:16:23;;;;;;;2.20;1.38;;;11.50;64.30;;;;;;10198613;28;20054;-77
2021/04/14 13:21:21;;;;;;;2.53;1.75;;;;;;;;;;10215867;28;20092;-77
2021/04/14 13:26:21;;;;;;;2.92;1.90;;;;;;;;;;10217318;28;20043;-78
2021/04/14 13:31:19;;;;;;;1.85;1.65;;;;;;;;;;10178441;28;20408;-77
2021/04/14 13:36:18;;;;;;;4.47;1.73;;;12.10;62.70;;;;;;10213633;28;20385;-76
2021/04/14 13:41:20;;;;;;;2.63;1.60;;;10.90;59.60;;;;;;10217323;28;20095;-78
2021/04/14 13:46:15;;;;;;;3.20;1.88;;;13.00;60.90;;;;;;10216772;28;20066;-77
2021/04/14 13:51:13;;;;;;;5.05;1.67;;;12.00;58.00;;;;;;10217940;28;20092;-76
2021/04/14 13:56:08;;;;;;;5.05;2.40;;;;;;;;;;10213305;28;20086;-78
2021/04/14 14:01:07;;;;;;;7.03;2.22;;;14.80;59.30;;;;;;10194941;28;20059;-78
2021/04/14 14:06:02;;;;;;;2.95;2.22;;;;;;;;;;10214051;28;20463;-78
2021/04/14 14:10:57;;;;;;;5.30;3.00;;;;;;;;;;10217499;28;20036;-78
2021/04/14 14:16:02;;;;;;;4.85;2.47;;;;;;;;;;10214913;28;20516;-76
2021/04/14 14:20:58;;;;;;;4.15;2.08;;;11.70;57.20;;;;;;10214168;28;20477;-77
2021/04/14 14:25:54;;;;;;;7.57;2.33;;;11.70;57.40;;;;;;10197142;28;20481;-79
2021/04/14 14:30:51;;;;;;;2.22;1.90;;;13.00;57.50;;;;;;10214792;28;20439;-75
2021/04/14 14:35:44;;;;;;;5.05;2.10;;;11.10;56.90;;;;;;10215553;28;20476;-76
2021/04/14 14:40:40;;;;;;;3.55;1.90;;;10.60;56.40;;;;;;10197583;28;20055;-74
2021/04/14 14:45:40;;;;;;;2.33;1.83;;;11.30;56.50;;;;;;10214646;28;20044;-74
2021/04/14 14:50:34;;;;;;;2.40;1.80;;;;;;;;;;10214075;28;20058;-77
2021/04/14 14:55:29;;;;;;;3.78;2.08;;;11.30;56.00;;;;;;10213867;28;20131;-76
2021/04/14 15:00:27;;;;;;;3.00;1.85;;;11.50;54.40;;;;;;10213527;28;20051;-77
2021/04/14 15:05:27;;;;;;;4.68;2.45;;;12.80;55.90;;;;;;10191256;28;20074;-77
2021/04/14 15:10:24;;;;;;;4.70;2.33;;;11.60;55.20;;;;;;10174655;28;20052;-76
2021/04/14 15:15:20;;;;;;;3.63;2.00;;;11.60;55.50;;;;;;10188146;28;20066;-76
2021/04/14 15:20:19;;;;;;;4.80;2.22;;;11.90;54.40;;;;;;10215391;28;20383;-75
2021/04/14 15:25:12;;;;;;;3.75;2.15;;;;;;;;;;10215187;28;20057;-75
2021/04/14 15:30:07;;;;;;;6.90;2.20;;;;;;;;;;10213436;28;20040;-76
2021/04/14 15:35:01;;;;;;;4.68;2.53;;;;;;;;;;10211570;28;20054;-75
2021/04/14 15:39:55;;;;;;;3.33;2.17;;;11.00;53.30;;;;;;10193810;28;20060;-73
2021/04/14 15:44:49;;;;;;;3.83;2.50;;;10.80;53.00;;;;;;10199061;28;20142;-73
2021/04/14 15:49:41;;;;;;;3.47;2.33;;;11.10;51.10;;;;;;10213992;28;20061;-74
2021/04/14 15:54:34;;;;;;;4.55;2.67;;;12.60;53.80;;;;;;10214799;28;20054;-73
2021/04/14 15:59:28;;;;;;;3.55;2.50;;;;;;;;;;10212770;28;20059;-74
2021/04/14 16:04:21;;;;;;;6.50;3.00;;;12.00;53.10;;;;;;10213131;28;20048;-74
2021/04/14 16:09:16;;;;;;;4.05;2.50;;;10.90;51.70;;;;;;10212642;28;20439;-73
2021/04/14 16:14:08;;;;;;;4.32;2.58;;;11.00;50.10;;;;;;10213140;28;20040;-74
2021/04/14 16:19:03;;;;;;;7.78;2.65;;;12.50;53.30;;;;;;10212779;28;20047;-74
2021/04/14 16:23:55;;;;;;;8.82;3.42;;;11.90;51.50;;;;;;10212015;28;20055;-76
2021/04/14 16:28:48;;;;;;;4.95;3.53;;;13.20;54.70;;;;;;10214387;28;20043;-75
2021/04/14 16:33:42;;;;;;;4.90;3.33;;;11.00;53.00;;;;;;10196686;28;20039;-74
2021/04/14 16:38:36;;;;;;;6.72;3.75;;;12.60;55.10;;;;;;10212309;28;20055;-76
2021/04/14 16:43:34;;;;;;;6.40;4.10;;;11.30;53.80;;;;;;10212022;28;20044;-75
2021/04/14 16:48:28;;;;;;;6.25;3.47;;;;;;;;;;10210314;28;20398;-76
2021/04/14 16:53:22;;;;;;;7.85;3.83;;;;;;;;;;10195399;28;20440;-75
2021/04/14 16:58:16;;;;;;;5.72;3.55;;;9.70;54.20;;;;;;10209698;28;20051;-74
2021/04/14 17:03:09;;;;;;;5.15;3.42;;;;;;;;;;10210939;28;20055;-75
2021/04/14 17:08:03;;;;;;;5.50;3.38;;;11.90;55.20;;;;;;10210360;28;20070;-74
2021/04/14 17:12:59;;;;;;;6.75;3.30;;;9.80;54.30;;;;;;10189856;28;20054;-74
2021/04/14 17:17:53;;;;;;;4.50;3.30;;;10.40;54.10;;;;;;10211756;28;20056;-75
2021/04/14 17:22:46;;;;;;;4.90;3.40;;;9.50;54.50;;;;;;10211453;28;20052;-75
2021/04/14 17:27:39;;;;;;;4.78;3.50;;;10.20;54.80;;;;;;10210475;28;20039;-76
2021/04/14 17:32:32;;;;;;;5.78;2.70;;;9.00;53.30;;;;;;10210193;28;20047;-74
2021/04/14 17:37:27;;;;;;;4.05;2.95;;;12.00;55.80;;;;;;10214545;28;20466;-74
2021/04/14 17:42:20;;;;;;;4.20;2.80;;;11.30;54.70;;;;;;10217891;28;20529;-75
2021/04/14 17:47:14;;;;;;;5.18;2.80;;;10.00;55.00;;;;;;10217685;28;20055;-76
2021/04/14 17:52:07;;;;;;;4.93;2.90;;;10.10;55.00;;;;;;10216031;28;20043;-75
2021/04/14 17:57:01;;;;;;;8.10;3.97;;;10.20;55.30;;;;;;10214309;28;20043;-75
2021/04/14 18:01:54;;;;;;;6.07;2.92;;;10.00;54.40;;;;;;10207193;28;20050;-76
2021/04/14 18:06:49;;;;;;;4.20;2.83;;;;;;;;;;10216915;28;20051;-75
2021/04/14 18:11:41;;;;;;;4.80;3.40;;;;;;;;;;10216271;28;20068;-75
2021/04/14 18:16:35;;;;;;;7.20;3.00;;;;;;;;;;10216438;28;20546;-75
2021/04/14 18:21:28;;;;;;;3.80;2.80;;;10.40;55.30;;;;;;10215560;28;20051;-75
2021/04/14 18:26:22;;;;;;;7.38;3.80;;;;;;;;;;10216735;28;20446;-75
2021/04/14 18:31:17;;;;;;;6.38;3.45;;;9.90;55.70;;;;;;10214775;28;20032;-76
2021/04/14 18:36:14;;;;;;;4.93;3.25;;;9.20;55.10;;;;;;10196786;28;20143;-76
2021/04/14 18:41:07;;;;;;;5.57;3.10;;;10.70;55.60;;;;;;10211218;28;20060;-76
2021/04/14 18:46:00;;;;;;;4.95;3.15;;;10.50;56.40;;;;;;10213749;28;20383;-75
2021/04/14 18:50:54;;;;;;;5.55;3.35;;;;;;;;;;10214050;28;20501;-76
2021/04/14 18:55:48;;;;;;;4.95;3.10;;;10.40;55.60;;;;;;10195591;28;20044;-75
2021/04/14 19:00:41;;;;;;;4.72;2.88;;;10.30;56.00;;;;;;10211967;28;20054;-75
2021/04/14 19:05:34;;;;;;;5.82;3.15;;;9.90;56.00;;;;;;10194975;28;20047;-75
2021/04/14 19:10:29;;;;;;;3.88;2.97;;;9.50;56.10;;;;;;10213918;28;20169;-76
2021/04/14 19:15:25;;;;;;;7.45;3.38;;;;;;;;;;10213592;28;20051;-76
2021/04/14 19:20:21;;;;;;;5.32;3.42;;;10.10;56.50;;;;;;10213031;28;20405;-77
2021/04/14 19:25:15;;;;;;;5.47;3.58;;;;;;;;;;10210068;28;20044;-76
2021/04/14 19:30:10;;;;;;;4.95;3.08;;;;;;;;;;10214191;28;20062;-75
2021/04/14 19:35:08;;;;;;;5.88;3.67;;;9.30;56.00;;;;;;10213777;28;20052;-75
2021/04/14 19:40:01;;;;;;;9.02;3.53;;;;;;;;;;10213261;28;20055;-76
2021/04/14 19:44:54;;;;;;;5.32;3.30;;;10.20;57.10;;;;;;10213146;28;20070;-75
2021/04/14 19:49:50;;;;;;;8.35;3.70;;;8.80;56.60;;;;;;10212283;28;20043;-76
2021/04/14 19:54:44;;;;;;;3.90;3.13;;;8.60;56.70;;;;;;10212284;28;20467;-75
2021/04/14 19:59:40;;;;;;;5.45;3.50;;;;;;;;;;10194347;28;20067;-75
2021/04/14 20:04:33;;;;;;;5.50;3.42;;;;;;;;;;10212816;28;20047;-75
2021/04/14 20:09:25;;;;;;;6.53;3.97;;;;;;;;;;10212308;28;20048;-76
2021/04/14 20:14:19;;;;;;;5.75;3.67;;;8.10;56.80;;;;;;10195401;28;20070;-75
2021/04/14 20:19:12;;;;;;;7.28;3.70;;;9.20;57.60;;;;;;10213731;28;20054;-76
2021/04/14 20:24:08;;;;;;;5.70;3.45;;;9.70;58.30;;;;;;10213054;28;20055;-75
2021/04/14 20:29:01;;;;;;;5.90;3.50;;;10.80;58.20;;;;;;10213261;28;20520;-74
2021/04/14 20:33:55;;;;;;;7.03;3.65;;;8.60;57.70;;;;;;10212692;28;20096;-74
2021/04/14 20:38:49;;;;;;;6.68;3.58;;;;;;;;;;10194945;28;20056;-74
2021/04/14 20:43:42;;;;;;;7.55;3.45;;;10.00;58.30;;;;;;10213045;28;20047;-75
2021/04/14 20:48:35;;;;;;;8.35;3.85;;;9.40;58.30;;;;;;10213211;28;20043;-75
2021/04/14 20:53:29;;;;;;;7.90;3.75;;;7.50;56.90;;;;;;10212875;28;20494;-75
2021/04/14 20:58:22;;;;;;;6.18;3.40;;;9.70;58.60;;;;;;10211909;28;20039;-73
2021/04/14 21:03:16;;;;;;;6.95;3.28;;;9.20;58.40;;;;;;10212642;28;20093;-74
2021/04/14 21:08:09;;;;;;;7.18;3.83;;;;;;;;;;10212394;28;20063;-74
2021/04/14 21:13:03;;;;;;;9.95;4.32;;;9.70;58.40;;;;;;10217952;28;20043;-75
2021/04/14 21:17:55;;;;;;;7.43;3.97;;;8.70;58.00;;;;;;10207379;28;20051;-75
2021/04/14 21:22:49;;;;;;;7.93;3.42;;;;;;;;;;10217887;28;20056;-74
2021/04/14 21:27:42;;;;;;;6.13;3.83;;;;;;;;;;10201385;28;20047;-75
2021/04/14 21:32:36;;;;;;;7.65;3.42;;;;;;;;;;10218419;28;20416;-75
2021/04/14 21:37:29;;;;;;;9.30;3.95;;;9.10;58.40;;;;;;10218770;28;20047;-75
2021/04/14 21:42:22;;;;;;;5.38;3.47;;;;;;;;;;10218320;28;20051;-74
2021/04/14 21:47:16;;;;;;;6.53;3.70;;;9.60;58.10;;;;;;10218581;28;20040;-75
2021/04/14 21:52:09;;;;;;;8.93;4.18;;;9.70;58.70;;;;;;10218350;28;20075;-74
2021/04/14 21:57:03;;;;;;;6.82;3.42;;;;;;;;;;10200707;28;20047;-75
2021/04/14 22:01:57;;;;;;;6.25;3.90;;;7.00;57.80;;;;;;10218968;28;20051;-75
2021/04/14 22:06:51;;;;;;;8.80;4.30;;;;;;;;;;10199135;28;20040;-76
2021/04/14 22:11:48;;;;;;;10.77;4.50;;;8.30;58.10;;;;;;10215371;28;20043;-75
2021/04/14 22:16:40;;;;;;;8.15;4.43;;;7.80;58.00;;;;;;10192659;28;20611;-76
2021/04/14 22:21:34;;;;;;;10.40;5.13;;;;;;;;;;10198843;28;20095;-76
2021/04/14 22:26:26;;;;;;;8.55;4.55;;;7.50;59.00;;;;;;10175742;28;20044;-74
2021/04/14 22:31:22;;;;;;;10.43;4.95;;;10.40;59.50;;;;;;10213632;28;20052;-76
2021/04/14 22:36:15;;;;;;;6.78;4.45;;;9.00;59.90;;;;;;10216562;28;20131;-75
2021/04/14 22:41:10;;;;;;;8.60;4.65;;;;;;;;;;10216895;28;20051;-76
2021/04/14 22:46:03;;;;;;;10.07;4.80;;;;;;;;;;10215961;28;20075;-76
2021/04/14 22:50:57;;;;;;;11.45;5.93;;;8.60;59.70;;;;;;10215801;28;20051;-77
2021/04/14 22:55:52;;;;;;;11.13;5.10;;;8.70;59.70;;;;;;10215773;28;20040;-75
2021/04/14 23:00:47;;;;;;;11.40;5.50;;;7.60;59.30;;;;;;10212580;28;20047;-75
2021/04/14 23:05:40;;;;;;;8.07;5.07;;;;;;;;;;10214709;28;20410;-74
2021/04/14 23:10:36;;;;;;;11.38;5.75;;;9.10;60.30;;;;;;10214933;28;20107;-75
2021/04/14 23:15:30;;;;;;;9.00;5.05;;;8.10;59.10;;;;;;10217029;28;20051;-75
2021/04/14 23:20:25;;;;;;;7.38;4.82;;;7.50;58.90;;;;;;10215717;28;20047;-75
2021/04/14 23:25:19;;;;;;;8.60;5.38;;;;;;;;;;10214623;28;20043;-74
2021/04/14 23:30:14;;;;;;;9.57;5.25;;;9.20;61.00;;;;;;10196911;28;20048;-77
2021/04/14 23:35:08;;;;;;;13.85;5.82;;;7.40;60.00;;;;;;10214501;28;20403;-75
2021/04/14 23:40:00;;;;;;;12.65;6.32;;;9.30;61.10;;;;;;10214981;28;20052;-74
2021/04/14 23:44:55;;;;;;;12.23;6.25;;;9.90;61.90;;;;;;10197707;28;20426;-75
2021/04/14 23:49:49;;;;;;;11.52;6.00;;;;;;;;;;10215614;28;20075;-74
2021/04/14 23:54:42;;;;;;;12.02;6.28;;;;;;;;;;10214852;28;20047;-75
2021/04/14 23:59:35;;;;;;;13.75;6.93;;;10.50;62.20;;;;;;10195992;28;20083;-75
